sensor_id;sensor_type;location;lat;lon;timestamp;P1;durP1;ratioP1;P2;durP2;ratioP2
40945;SDS011;55635;50.264;11.918;2023-12-20T00:00:08;6.13;;;5.10;;
40945;SDS011;55635;50.264;11.918;2023-12-20T00:02:49;7.00;;;5.20;;
40945;SDS011;55635;50.264;11.918;2023-12-20T00:05:30;7.53;;;5.20;;
40945;SDS011;55635;50.264;11.918;2023-12-20T00:08:15;6.28;;;4.43;;
40945;SDS011;55635;50.264;11.918;2023-12-20T00:10:57;7.30;;;4.55;;
40945;SDS011;55635;50.264;11.918;2023-12-20T00:13:37;6.45;;;5.18;;
40945;SDS011;55635;50.264;11.918;2023-12-20T00:16:18;5.47;;;4.40;;
40945;SDS011;55635;50.264;11.918;2023-12-20T00:18:59;8.35;;;4.90;;
40945;SDS011;55635;50.264;11.918;2023-12-20T00:21:40;6.53;;;4.88;;
40945;SDS011;55635;50.264;11.918;2023-12-20T00:24:21;5.43;;;4.20;;
40945;SDS011;55635;50.264;11.918;2023-12-20T00:27:02;5.40;;;3.80;;
40945;SDS011;55635;50.264;11.918;2023-12-20T00:29:43;4.70;;;3.90;;
40945;SDS011;55635;50.264;11.918;2023-12-20T00:32:27;4.93;;;4.40;;
40945;SDS011;55635;50.264;11.918;2023-12-20T00:35:08;6.45;;;4.35;;
40945;SDS011;55635;50.264;11.918;2023-12-20T00:37:49;5.80;;;4.00;;
40945;SDS011;55635;50.264;11.918;2023-12-20T00:40:30;5.57;;;3.90;;
40945;SDS011;55635;50.264;11.918;2023-12-20T00:43:11;5.85;;;3.90;;
40945;SDS011;55635;50.264;11.918;2023-12-20T00:45:55;4.70;;;4.03;;
40945;SDS011;55635;50.264;11.918;2023-12-20T00:48:37;4.38;;;3.78;;
40945;SDS011;55635;50.264;11.918;2023-12-20T00:51:18;3.75;;;3.35;;
40945;SDS011;55635;50.264;11.918;2023-12-20T00:53:59;4.40;;;3.22;;
40945;SDS011;55635;50.264;11.918;2023-12-20T00:56:39;4.45;;;3.78;;
40945;SDS011;55635;50.264;11.918;2023-12-20T00:59:20;3.47;;;3.15;;
40945;SDS011;55635;50.264;11.918;2023-12-20T01:02:01;3.85;;;3.40;;
40945;SDS011;55635;50.264;11.918;2023-12-20T01:04:43;3.38;;;2.90;;
40945;SDS011;55635;50.264;11.918;2023-12-20T01:07:23;3.58;;;3.25;;
40945;SDS011;55635;50.264;11.918;2023-12-20T01:10:04;3.63;;;2.95;;
40945;SDS011;55635;50.264;11.918;2023-12-20T01:12:45;3.42;;;2.78;;
40945;SDS011;55635;50.264;11.918;2023-12-20T01:15:27;3.30;;;2.92;;
40945;SDS011;55635;50.264;11.918;2023-12-20T01:18:07;3.80;;;2.90;;
40945;SDS011;55635;50.264;11.918;2023-12-20T01:20:48;3.10;;;2.80;;
40945;SDS011;55635;50.264;11.918;2023-12-20T01:23:29;3.00;;;2.70;;
40945;SDS011;55635;50.264;11.918;2023-12-20T01:26:11;2.78;;;2.58;;
40945;SDS011;55635;50.264;11.918;2023-12-20T01:28:52;2.75;;;2.45;;
40945;SDS011;55635;50.264;11.918;2023-12-20T01:31:33;2.33;;;2.13;;
40945;SDS011;55635;50.264;11.918;2023-12-20T01:34:14;3.00;;;2.35;;
40945;SDS011;55635;50.264;11.918;2023-12-20T01:36:55;2.28;;;2.08;;
40945;SDS011;55635;50.264;11.918;2023-12-20T01:39:36;2.60;;;2.40;;
40945;SDS011;55635;50.264;11.918;2023-12-20T01:42:16;2.17;;;1.98;;
40945;SDS011;55635;50.264;11.918;2023-12-20T01:44:58;2.75;;;2.47;;
40945;SDS011;55635;50.264;11.918;2023-12-20T01:47:39;2.47;;;2.28;;
40945;SDS011;55635;50.264;11.918;2023-12-20T01:50:21;2.50;;;2.30;;
40945;SDS011;55635;50.264;11.918;2023-12-20T01:53:02;2.50;;;2.30;;
40945;SDS011;55635;50.264;11.918;2023-12-20T01:55:46;2.42;;;2.22;;
40945;SDS011;55635;50.264;11.918;2023-12-20T01:58:30;2.53;;;2.33;;
40945;SDS011;55635;50.264;11.918;2023-12-20T02:01:11;2.28;;;2.00;;
40945;SDS011;55635;50.264;11.918;2023-12-20T02:03:53;2.20;;;2.00;;
40945;SDS011;55635;50.264;11.918;2023-12-20T02:06:36;1.92;;;1.80;;
40945;SDS011;55635;50.264;11.918;2023-12-20T02:09:20;2.53;;;2.33;;
40945;SDS011;55635;50.264;11.918;2023-12-20T02:12:02;2.03;;;1.83;;
40945;SDS011;55635;50.264;11.918;2023-12-20T02:14:44;1.95;;;1.75;;
40945;SDS011;55635;50.264;11.918;2023-12-20T02:17:25;1.67;;;1.42;;
40945;SDS011;55635;50.264;11.918;2023-12-20T02:20:07;1.88;;;1.70;;
40945;SDS011;55635;50.264;11.918;2023-12-20T02:22:48;1.50;;;1.40;;
40945;SDS011;55635;50.264;11.918;2023-12-20T02:25:29;1.25;;;1.15;;
40945;SDS011;55635;50.264;11.918;2023-12-20T02:28:10;1.55;;;1.40;;
40945;SDS011;55635;50.264;11.918;2023-12-20T02:30:51;1.95;;;1.15;;
40945;SDS011;55635;50.264;11.918;2023-12-20T02:33:32;1.25;;;1.15;;
40945;SDS011;55635;50.264;11.918;2023-12-20T02:36:13;1.17;;;1.08;;
40945;SDS011;55635;50.264;11.918;2023-12-20T02:38:54;1.23;;;1.15;;
40945;SDS011;55635;50.264;11.918;2023-12-20T02:41:35;2.20;;;0.98;;
40945;SDS011;55635;50.264;11.918;2023-12-20T02:44:15;1.10;;;1.00;;
40945;SDS011;55635;50.264;11.918;2023-12-20T02:46:56;1.08;;;0.95;;
40945;SDS011;55635;50.264;11.918;2023-12-20T02:49:37;1.13;;;0.93;;
40945;SDS011;55635;50.264;11.918;2023-12-20T02:52:18;1.10;;;1.00;;
40945;SDS011;55635;50.264;11.918;2023-12-20T02:54:59;0.95;;;0.95;;
40945;SDS011;55635;50.264;11.918;2023-12-20T02:57:40;1.58;;;0.98;;
40945;SDS011;55635;50.264;11.918;2023-12-20T03:00:21;1.00;;;0.90;;
40945;SDS011;55635;50.264;11.918;2023-12-20T03:03:02;0.90;;;0.90;;
40945;SDS011;55635;50.264;11.918;2023-12-20T03:05:44;0.70;;;0.70;;
40945;SDS011;55635;50.264;11.918;2023-12-20T03:08:26;1.67;;;0.80;;
40945;SDS011;55635;50.264;11.918;2023-12-20T03:11:07;0.80;;;0.80;;
40945;SDS011;55635;50.264;11.918;2023-12-20T03:13:48;1.00;;;0.90;;
40945;SDS011;55635;50.264;11.918;2023-12-20T03:16:29;0.70;;;0.70;;
40945;SDS011;55635;50.264;11.918;2023-12-20T03:19:11;0.80;;;0.80;;
40945;SDS011;55635;50.264;11.918;2023-12-20T03:21:52;1.15;;;1.00;;
40945;SDS011;55635;50.264;11.918;2023-12-20T03:24:33;0.75;;;0.70;;
40945;SDS011;55635;50.264;11.918;2023-12-20T03:27:14;0.70;;;0.60;;
40945;SDS011;55635;50.264;11.918;2023-12-20T03:29:55;0.63;;;0.63;;
40945;SDS011;55635;50.264;11.918;2023-12-20T03:32:36;0.70;;;0.70;;
40945;SDS011;55635;50.264;11.918;2023-12-20T03:35:18;0.95;;;0.63;;
40945;SDS011;55635;50.264;11.918;2023-12-20T03:37:59;0.70;;;0.63;;
40945;SDS011;55635;50.264;11.918;2023-12-20T03:40:40;0.60;;;0.60;;
40945;SDS011;55635;50.264;11.918;2023-12-20T03:43:21;0.95;;;0.73;;
40945;SDS011;55635;50.264;11.918;2023-12-20T03:46:02;1.17;;;0.43;;
40945;SDS011;55635;50.264;11.918;2023-12-20T03:48:44;1.17;;;0.50;;
40945;SDS011;55635;50.264;11.918;2023-12-20T03:51:25;0.70;;;0.60;;
40945;SDS011;55635;50.264;11.918;2023-12-20T03:54:06;0.50;;;0.50;;
40945;SDS011;55635;50.264;11.918;2023-12-20T03:56:46;0.80;;;0.55;;
40945;SDS011;55635;50.264;11.918;2023-12-20T03:59:27;1.38;;;0.52;;
40945;SDS011;55635;50.264;11.918;2023-12-20T04:02:08;0.85;;;0.50;;
40945;SDS011;55635;50.264;11.918;2023-12-20T04:04:49;0.50;;;0.50;;
40945;SDS011;55635;50.264;11.918;2023-12-20T04:07:30;0.60;;;0.60;;
40945;SDS011;55635;50.264;11.918;2023-12-20T04:10:11;0.60;;;0.60;;
40945;SDS011;55635;50.264;11.918;2023-12-20T04:12:52;0.57;;;0.40;;
40945;SDS011;55635;50.264;11.918;2023-12-20T04:15:35;0.50;;;0.45;;
40945;SDS011;55635;50.264;11.918;2023-12-20T04:18:16;0.57;;;0.57;;
40945;SDS011;55635;50.264;11.918;2023-12-20T04:20:56;0.50;;;0.50;;
40945;SDS011;55635;50.264;11.918;2023-12-20T04:23:37;0.60;;;0.60;;
40945;SDS011;55635;50.264;11.918;2023-12-20T04:26:18;0.75;;;0.75;;
40945;SDS011;55635;50.264;11.918;2023-12-20T04:28:59;0.50;;;0.50;;
40945;SDS011;55635;50.264;11.918;2023-12-20T04:31:40;1.23;;;0.80;;
40945;SDS011;55635;50.264;11.918;2023-12-20T04:34:21;0.60;;;0.60;;
40945;SDS011;55635;50.264;11.918;2023-12-20T04:37:03;1.10;;;0.75;;
40945;SDS011;55635;50.264;11.918;2023-12-20T04:39:44;0.90;;;0.90;;
40945;SDS011;55635;50.264;11.918;2023-12-20T04:42:25;1.10;;;0.85;;
40945;SDS011;55635;50.264;11.918;2023-12-20T04:45:06;0.60;;;0.60;;
40945;SDS011;55635;50.264;11.918;2023-12-20T04:47:47;0.90;;;0.80;;
40945;SDS011;55635;50.264;11.918;2023-12-20T04:50:28;0.70;;;0.70;;
40945;SDS011;55635;50.264;11.918;2023-12-20T04:53:09;0.77;;;0.63;;
40945;SDS011;55635;50.264;11.918;2023-12-20T04:55:50;1.95;;;0.70;;
40945;SDS011;55635;50.264;11.918;2023-12-20T04:58:31;0.88;;;0.70;;
40945;SDS011;55635;50.264;11.918;2023-12-20T05:01:11;0.65;;;0.65;;
40945;SDS011;55635;50.264;11.918;2023-12-20T05:03:52;0.93;;;0.93;;
40945;SDS011;55635;50.264;11.918;2023-12-20T05:06:33;0.77;;;0.77;;
40945;SDS011;55635;50.264;11.918;2023-12-20T05:09:14;0.60;;;0.60;;
40945;SDS011;55635;50.264;11.918;2023-12-20T05:11:56;0.70;;;0.70;;
40945;SDS011;55635;50.264;11.918;2023-12-20T05:14:37;0.80;;;0.80;;
40945;SDS011;55635;50.264;11.918;2023-12-20T05:17:18;1.05;;;0.73;;
40945;SDS011;55635;50.264;11.918;2023-12-20T05:20:03;0.63;;;0.63;;
40945;SDS011;55635;50.264;11.918;2023-12-20T05:22:45;0.50;;;0.47;;
40945;SDS011;55635;50.264;11.918;2023-12-20T05:25:26;0.40;;;0.38;;
40945;SDS011;55635;50.264;11.918;2023-12-20T05:28:07;0.60;;;0.60;;
40945;SDS011;55635;50.264;11.918;2023-12-20T05:30:49;0.60;;;0.60;;
40945;SDS011;55635;50.264;11.918;2023-12-20T05:33:29;0.65;;;0.65;;
40945;SDS011;55635;50.264;11.918;2023-12-20T05:36:11;0.40;;;0.40;;
40945;SDS011;55635;50.264;11.918;2023-12-20T05:38:53;0.60;;;0.60;;
40945;SDS011;55635;50.264;11.918;2023-12-20T05:41:35;0.80;;;0.80;;
40945;SDS011;55635;50.264;11.918;2023-12-20T05:44:15;1.08;;;1.02;;
40945;SDS011;55635;50.264;11.918;2023-12-20T05:46:57;1.20;;;1.10;;
40945;SDS011;55635;50.264;11.918;2023-12-20T05:49:37;1.50;;;1.40;;
40945;SDS011;55635;50.264;11.918;2023-12-20T05:52:19;1.50;;;1.40;;
40945;SDS011;55635;50.264;11.918;2023-12-20T05:54:59;1.92;;;1.70;;
40945;SDS011;55635;50.264;11.918;2023-12-20T05:57:41;1.80;;;1.70;;
40945;SDS011;55635;50.264;11.918;2023-12-20T06:00:23;2.67;;;2.33;;
40945;SDS011;55635;50.264;11.918;2023-12-20T06:03:05;2.63;;;2.42;;
40945;SDS011;55635;50.264;11.918;2023-12-20T06:05:46;4.80;;;2.63;;
40945;SDS011;55635;50.264;11.918;2023-12-20T06:08:27;3.55;;;2.95;;
40945;SDS011;55635;50.264;11.918;2023-12-20T06:11:08;3.90;;;3.40;;
40945;SDS011;55635;50.264;11.918;2023-12-20T06:13:49;5.63;;;3.63;;
40945;SDS011;55635;50.264;11.918;2023-12-20T06:16:32;4.43;;;3.13;;
40945;SDS011;55635;50.264;11.918;2023-12-20T06:19:13;4.63;;;3.58;;
40945;SDS011;55635;50.264;11.918;2023-12-20T06:21:54;6.60;;;4.35;;
40945;SDS011;55635;50.264;11.918;2023-12-20T06:24:36;4.22;;;3.67;;
40945;SDS011;55635;50.264;11.918;2023-12-20T06:27:16;3.92;;;3.53;;
40945;SDS011;55635;50.264;11.918;2023-12-20T06:29:58;3.38;;;3.05;;
40945;SDS011;55635;50.264;11.918;2023-12-20T06:32:39;2.92;;;2.70;;
40945;SDS011;55635;50.264;11.918;2023-12-20T06:35:22;2.60;;;2.40;;
40945;SDS011;55635;50.264;11.918;2023-12-20T06:38:03;2.80;;;2.45;;
40945;SDS011;55635;50.264;11.918;2023-12-20T06:40:44;2.30;;;2.10;;
40945;SDS011;55635;50.264;11.918;2023-12-20T06:43:26;2.05;;;1.90;;
40945;SDS011;55635;50.264;11.918;2023-12-20T06:46:06;1.95;;;1.50;;
40945;SDS011;55635;50.264;11.918;2023-12-20T06:48:48;1.48;;;1.38;;
40945;SDS011;55635;50.264;11.918;2023-12-20T06:51:30;1.40;;;1.27;;
40945;SDS011;55635;50.264;11.918;2023-12-20T06:54:11;0.80;;;0.80;;
40945;SDS011;55635;50.264;11.918;2023-12-20T06:56:52;0.98;;;0.98;;
40945;SDS011;55635;50.264;11.918;2023-12-20T06:59:33;0.85;;;0.85;;
40945;SDS011;55635;50.264;11.918;2023-12-20T07:02:18;1.05;;;1.00;;
40945;SDS011;55635;50.264;11.918;2023-12-20T07:04:59;0.90;;;0.90;;
40945;SDS011;55635;50.264;11.918;2023-12-20T07:07:40;2.47;;;0.80;;
40945;SDS011;55635;50.264;11.918;2023-12-20T07:10:22;0.75;;;0.65;;
40945;SDS011;55635;50.264;11.918;2023-12-20T07:13:03;0.80;;;0.80;;
40945;SDS011;55635;50.264;11.918;2023-12-20T07:15:45;0.80;;;0.75;;
40945;SDS011;55635;50.264;11.918;2023-12-20T07:18:26;0.70;;;0.70;;
40945;SDS011;55635;50.264;11.918;2023-12-20T07:21:06;0.70;;;0.60;;
40945;SDS011;55635;50.264;11.918;2023-12-20T07:23:48;0.70;;;0.70;;
40945;SDS011;55635;50.264;11.918;2023-12-20T07:26:29;0.93;;;0.85;;
40945;SDS011;55635;50.264;11.918;2023-12-20T07:29:10;1.00;;;0.90;;
40945;SDS011;55635;50.264;11.918;2023-12-20T07:31:52;1.67;;;1.00;;
40945;SDS011;55635;50.264;11.918;2023-12-20T07:34:34;1.33;;;1.23;;
40945;SDS011;55635;50.264;11.918;2023-12-20T07:37:15;1.35;;;1.25;;
40945;SDS011;55635;50.264;11.918;2023-12-20T07:39:56;1.60;;;1.50;;
40945;SDS011;55635;50.264;11.918;2023-12-20T07:42:37;1.80;;;1.70;;
40945;SDS011;55635;50.264;11.918;2023-12-20T07:45:18;2.40;;;1.70;;
40945;SDS011;55635;50.264;11.918;2023-12-20T07:47:59;2.30;;;2.08;;
40945;SDS011;55635;50.264;11.918;2023-12-20T07:50:40;2.50;;;2.30;;
40945;SDS011;55635;50.264;11.918;2023-12-20T07:53:21;1.70;;;1.60;;
40945;SDS011;55635;50.264;11.918;2023-12-20T07:56:05;2.03;;;1.92;;
40945;SDS011;55635;50.264;11.918;2023-12-20T07:58:57;2.30;;;2.10;;
40945;SDS011;55635;50.264;11.918;2023-12-20T08:01:38;3.05;;;2.30;;
40945;SDS011;55635;50.264;11.918;2023-12-20T08:04:19;2.08;;;1.98;;
40945;SDS011;55635;50.264;11.918;2023-12-20T08:07:00;2.42;;;2.22;;
40945;SDS011;55635;50.264;11.918;2023-12-20T08:09:42;2.38;;;2.17;;
40945;SDS011;55635;50.264;11.918;2023-12-20T08:12:23;2.30;;;2.10;;
40945;SDS011;55635;50.264;11.918;2023-12-20T08:15:07;2.20;;;2.00;;
40945;SDS011;55635;50.264;11.918;2023-12-20T08:17:49;2.30;;;2.17;;
40945;SDS011;55635;50.264;11.918;2023-12-20T08:20:33;2.40;;;2.20;;
40945;SDS011;55635;50.264;11.918;2023-12-20T08:23:15;2.55;;;2.35;;
40945;SDS011;55635;50.264;11.918;2023-12-20T08:25:55;2.38;;;1.80;;
40945;SDS011;55635;50.264;11.918;2023-12-20T08:28:36;2.25;;;1.40;;
40945;SDS011;55635;50.264;11.918;2023-12-20T08:31:18;1.77;;;1.67;;
40945;SDS011;55635;50.264;11.918;2023-12-20T08:33:59;3.58;;;1.60;;
40945;SDS011;55635;50.264;11.918;2023-12-20T08:36:40;3.20;;;2.10;;
40945;SDS011;55635;50.264;11.918;2023-12-20T08:39:21;6.85;;;2.33;;
40945;SDS011;55635;50.264;11.918;2023-12-20T08:42:02;3.72;;;2.60;;
40945;SDS011;55635;50.264;11.918;2023-12-20T08:44:43;2.83;;;2.20;;
40945;SDS011;55635;50.264;11.918;2023-12-20T08:47:25;3.05;;;2.22;;
40945;SDS011;55635;50.264;11.918;2023-12-20T08:50:06;4.20;;;2.75;;
40945;SDS011;55635;50.264;11.918;2023-12-20T08:52:48;4.00;;;3.08;;
40945;SDS011;55635;50.264;11.918;2023-12-20T08:55:29;4.38;;;3.05;;
40945;SDS011;55635;50.264;11.918;2023-12-20T08:58:11;4.32;;;3.40;;
40945;SDS011;55635;50.264;11.918;2023-12-20T09:00:51;4.60;;;3.40;;
40945;SDS011;55635;50.264;11.918;2023-12-20T09:03:32;5.28;;;3.72;;
40945;SDS011;55635;50.264;11.918;2023-12-20T09:06:13;3.92;;;3.53;;
40945;SDS011;55635;50.264;11.918;2023-12-20T09:08:54;3.40;;;3.08;;
40945;SDS011;55635;50.264;11.918;2023-12-20T09:11:35;5.03;;;3.53;;
40945;SDS011;55635;50.264;11.918;2023-12-20T09:14:16;4.72;;;3.65;;
40945;SDS011;55635;50.264;11.918;2023-12-20T09:16:58;3.78;;;3.45;;
40945;SDS011;55635;50.264;11.918;2023-12-20T09:19:42;5.18;;;3.83;;
40945;SDS011;55635;50.264;11.918;2023-12-20T09:22:24;4.75;;;3.15;;
40945;SDS011;55635;50.264;11.918;2023-12-20T09:25:05;5.40;;;3.70;;
40945;SDS011;55635;50.264;11.918;2023-12-20T09:27:46;5.13;;;3.65;;
40945;SDS011;55635;50.264;11.918;2023-12-20T09:30:27;5.93;;;3.65;;
40945;SDS011;55635;50.264;11.918;2023-12-20T09:33:09;4.50;;;3.25;;
40945;SDS011;55635;50.264;11.918;2023-12-20T09:35:50;5.78;;;3.38;;
40945;SDS011;55635;50.264;11.918;2023-12-20T09:38:31;5.97;;;3.42;;
40945;SDS011;55635;50.264;11.918;2023-12-20T09:41:12;4.07;;;3.63;;
40945;SDS011;55635;50.264;11.918;2023-12-20T09:43:53;4.78;;;3.40;;
40945;SDS011;55635;50.264;11.918;2023-12-20T09:46:36;6.15;;;3.05;;
40945;SDS011;55635;50.264;11.918;2023-12-20T09:49:21;6.45;;;3.47;;
40945;SDS011;55635;50.264;11.918;2023-12-20T09:52:03;5.13;;;3.22;;
40945;SDS011;55635;50.264;11.918;2023-12-20T09:54:48;5.75;;;3.80;;
40945;SDS011;55635;50.264;11.918;2023-12-20T09:57:33;7.38;;;3.63;;
40945;SDS011;55635;50.264;11.918;2023-12-20T10:00:14;3.80;;;2.83;;
40945;SDS011;55635;50.264;11.918;2023-12-20T10:02:58;3.28;;;2.72;;
40945;SDS011;55635;50.264;11.918;2023-12-20T10:05:40;6.93;;;3.97;;
40945;SDS011;55635;50.264;11.918;2023-12-20T10:08:24;4.25;;;3.00;;
40945;SDS011;55635;50.264;11.918;2023-12-20T10:11:05;4.05;;;3.50;;
40945;SDS011;55635;50.264;11.918;2023-12-20T10:13:47;3.10;;;2.63;;
40945;SDS011;55635;50.264;11.918;2023-12-20T10:16:29;5.70;;;2.95;;
40945;SDS011;55635;50.264;11.918;2023-12-20T10:19:10;3.38;;;2.80;;
40945;SDS011;55635;50.264;11.918;2023-12-20T10:21:52;4.85;;;2.85;;
40945;SDS011;55635;50.264;11.918;2023-12-20T10:24:33;9.15;;;2.80;;
40945;SDS011;55635;50.264;11.918;2023-12-20T10:27:14;4.07;;;2.90;;
40945;SDS011;55635;50.264;11.918;2023-12-20T10:29:59;4.95;;;2.90;;
40945;SDS011;55635;50.264;11.918;2023-12-20T10:32:40;4.60;;;3.17;;
40945;SDS011;55635;50.264;11.918;2023-12-20T10:35:21;5.85;;;3.85;;
40945;SDS011;55635;50.264;11.918;2023-12-20T10:38:03;4.78;;;3.10;;
40945;SDS011;55635;50.264;11.918;2023-12-20T10:40:45;7.57;;;3.50;;
40945;SDS011;55635;50.264;11.918;2023-12-20T10:43:27;4.47;;;2.85;;
40945;SDS011;55635;50.264;11.918;2023-12-20T10:46:10;6.60;;;3.50;;
40945;SDS011;55635;50.264;11.918;2023-12-20T10:48:54;5.63;;;3.53;;
40945;SDS011;55635;50.264;11.918;2023-12-20T10:51:37;8.45;;;3.75;;
40945;SDS011;55635;50.264;11.918;2023-12-20T10:54:19;7.93;;;3.80;;
40945;SDS011;55635;50.264;11.918;2023-12-20T10:57:03;6.47;;;3.55;;
40945;SDS011;55635;50.264;11.918;2023-12-20T10:59:46;4.90;;;3.58;;
40945;SDS011;55635;50.264;11.918;2023-12-20T11:02:30;5.28;;;3.47;;
40945;SDS011;55635;50.264;11.918;2023-12-20T11:05:28;7.03;;;3.47;;
40945;SDS011;55635;50.264;11.918;2023-12-20T11:08:28;5.30;;;3.03;;
40945;SDS011;55635;50.264;11.918;2023-12-20T11:11:39;6.20;;;3.17;;
40945;SDS011;55635;50.264;11.918;2023-12-20T11:17:31;4.68;;;2.47;;
40945;SDS011;55635;50.264;11.918;2023-12-20T11:20:12;4.47;;;2.70;;
40945;SDS011;55635;50.264;11.918;2023-12-20T11:22:54;4.68;;;2.58;;
40945;SDS011;55635;50.264;11.918;2023-12-20T11:25:53;5.45;;;2.10;;
40945;SDS011;55635;50.264;11.918;2023-12-20T11:28:38;4.07;;;1.92;;
40945;SDS011;55635;50.264;11.918;2023-12-20T11:31:19;6.28;;;2.25;;
40945;SDS011;55635;50.264;11.918;2023-12-20T11:34:12;4.85;;;2.45;;
40945;SDS011;55635;50.264;11.918;2023-12-20T11:36:58;5.45;;;1.85;;
40945;SDS011;55635;50.264;11.918;2023-12-20T11:39:42;4.80;;;2.40;;
40945;SDS011;55635;50.264;11.918;2023-12-20T11:42:24;3.90;;;1.55;;
40945;SDS011;55635;50.264;11.918;2023-12-20T11:45:05;6.05;;;2.00;;
40945;SDS011;55635;50.264;11.918;2023-12-20T11:47:55;3.55;;;2.50;;
40945;SDS011;55635;50.264;11.918;2023-12-20T11:50:37;3.55;;;1.88;;
40945;SDS011;55635;50.264;11.918;2023-12-20T11:53:19;9.00;;;2.40;;
40945;SDS011;55635;50.264;11.918;2023-12-20T11:56:00;6.35;;;2.33;;
40945;SDS011;55635;50.264;11.918;2023-12-20T11:58:43;6.55;;;1.83;;
40945;SDS011;55635;50.264;11.918;2023-12-20T12:01:24;3.95;;;2.42;;
40945;SDS011;55635;50.264;11.918;2023-12-20T12:04:05;4.03;;;2.30;;
40945;SDS011;55635;50.264;11.918;2023-12-20T12:06:47;6.20;;;2.15;;
40945;SDS011;55635;50.264;11.918;2023-12-20T12:09:28;4.50;;;1.83;;
40945;SDS011;55635;50.264;11.918;2023-12-20T12:12:09;4.00;;;2.17;;
40945;SDS011;55635;50.264;11.918;2023-12-20T12:14:54;6.85;;;2.00;;
40945;SDS011;55635;50.264;11.918;2023-12-20T12:17:37;3.65;;;1.73;;
40945;SDS011;55635;50.264;11.918;2023-12-20T12:20:19;4.55;;;2.10;;
40945;SDS011;55635;50.264;11.918;2023-12-20T12:23:03;6.20;;;2.65;;
40945;SDS011;55635;50.264;11.918;2023-12-20T12:25:46;3.65;;;1.58;;
40945;SDS011;55635;50.264;11.918;2023-12-20T12:28:28;2.78;;;1.83;;
40945;SDS011;55635;50.264;11.918;2023-12-20T12:31:15;4.97;;;2.08;;
40945;SDS011;55635;50.264;11.918;2023-12-20T12:33:56;2.53;;;1.65;;
40945;SDS011;55635;50.264;11.918;2023-12-20T12:36:36;4.80;;;2.03;;
40945;SDS011;55635;50.264;11.918;2023-12-20T12:39:18;2.58;;;1.63;;
40945;SDS011;55635;50.264;11.918;2023-12-20T12:41:59;4.18;;;1.27;;
40945;SDS011;55635;50.264;11.918;2023-12-20T12:44:40;5.03;;;2.00;;
40945;SDS011;55635;50.264;11.918;2023-12-20T12:47:20;3.80;;;1.17;;
40945;SDS011;55635;50.264;11.918;2023-12-20T12:50:02;4.72;;;1.55;;
40945;SDS011;55635;50.264;11.918;2023-12-20T12:52:46;1.65;;;1.35;;
40945;SDS011;55635;50.264;11.918;2023-12-20T12:55:27;1.85;;;1.42;;
40945;SDS011;55635;50.264;11.918;2023-12-20T12:58:08;3.83;;;1.30;;
40945;SDS011;55635;50.264;11.918;2023-12-20T13:00:49;1.95;;;1.25;;
40945;SDS011;55635;50.264;11.918;2023-12-20T13:03:30;3.08;;;1.50;;
40945;SDS011;55635;50.264;11.918;2023-12-20T13:06:11;3.67;;;1.50;;
40945;SDS011;55635;50.264;11.918;2023-12-20T13:08:52;2.13;;;1.80;;
40945;SDS011;55635;50.264;11.918;2023-12-20T13:11:33;2.50;;;1.33;;
40945;SDS011;55635;50.264;11.918;2023-12-20T13:14:15;1.90;;;1.77;;
40945;SDS011;55635;50.264;11.918;2023-12-20T13:16:56;3.95;;;2.13;;
40945;SDS011;55635;50.264;11.918;2023-12-20T13:19:37;4.55;;;1.67;;
40945;SDS011;55635;50.264;11.918;2023-12-20T13:22:18;3.78;;;2.03;;
40945;SDS011;55635;50.264;11.918;2023-12-20T13:25:00;5.30;;;1.65;;
40945;SDS011;55635;50.264;11.918;2023-12-20T13:27:42;3.88;;;2.10;;
40945;SDS011;55635;50.264;11.918;2023-12-20T13:30:23;3.70;;;1.70;;
40945;SDS011;55635;50.264;11.918;2023-12-20T13:33:05;5.57;;;2.10;;
40945;SDS011;55635;50.264;11.918;2023-12-20T13:35:46;5.50;;;2.00;;
40945;SDS011;55635;50.264;11.918;2023-12-20T13:38:28;5.38;;;1.75;;
40945;SDS011;55635;50.264;11.918;2023-12-20T13:41:09;5.43;;;1.98;;
40945;SDS011;55635;50.264;11.918;2023-12-20T13:43:50;8.40;;;2.00;;
40945;SDS011;55635;50.264;11.918;2023-12-20T13:46:31;4.35;;;1.98;;
40945;SDS011;55635;50.264;11.918;2023-12-20T13:49:12;4.63;;;1.67;;
40945;SDS011;55635;50.264;11.918;2023-12-20T13:51:54;5.78;;;2.58;;
40945;SDS011;55635;50.264;11.918;2023-12-20T13:54:35;1.77;;;1.40;;
40945;SDS011;55635;50.264;11.918;2023-12-20T13:57:17;3.72;;;1.90;;
40945;SDS011;55635;50.264;11.918;2023-12-20T13:59:58;3.63;;;1.60;;
40945;SDS011;55635;50.264;11.918;2023-12-20T14:02:40;4.85;;;1.98;;
40945;SDS011;55635;50.264;11.918;2023-12-20T14:05:22;4.22;;;1.88;;
40945;SDS011;55635;50.264;11.918;2023-12-20T14:08:03;6.32;;;2.30;;
40945;SDS011;55635;50.264;11.918;2023-12-20T14:10:45;4.45;;;1.90;;
40945;SDS011;55635;50.264;11.918;2023-12-20T14:13:26;5.32;;;1.67;;
40945;SDS011;55635;50.264;11.918;2023-12-20T14:16:07;4.80;;;1.58;;
40945;SDS011;55635;50.264;11.918;2023-12-20T14:18:50;3.00;;;1.33;;
40945;SDS011;55635;50.264;11.918;2023-12-20T14:21:37;8.30;;;1.90;;
40945;SDS011;55635;50.264;11.918;2023-12-20T14:24:18;4.43;;;2.08;;
40945;SDS011;55635;50.264;11.918;2023-12-20T14:26:59;4.78;;;1.83;;
40945;SDS011;55635;50.264;11.918;2023-12-20T14:29:41;7.43;;;1.58;;
40945;SDS011;55635;50.264;11.918;2023-12-20T14:32:22;4.97;;;1.63;;
40945;SDS011;55635;50.264;11.918;2023-12-20T14:35:07;4.07;;;1.60;;
40945;SDS011;55635;50.264;11.918;2023-12-20T14:37:48;6.47;;;2.25;;
40945;SDS011;55635;50.264;11.918;2023-12-20T14:40:30;6.40;;;2.45;;
40945;SDS011;55635;50.264;11.918;2023-12-20T14:43:11;8.63;;;2.35;;
40945;SDS011;55635;50.264;11.918;2023-12-20T14:45:52;5.45;;;1.83;;
40945;SDS011;55635;50.264;11.918;2023-12-20T14:48:33;6.68;;;1.90;;
40945;SDS011;55635;50.264;11.918;2023-12-20T14:51:14;3.47;;;1.77;;
40945;SDS011;55635;50.264;11.918;2023-12-20T14:53:55;4.18;;;2.20;;
40945;SDS011;55635;50.264;11.918;2023-12-20T14:56:37;3.08;;;1.95;;
40945;SDS011;55635;50.264;11.918;2023-12-20T14:59:18;8.00;;;1.90;;
40945;SDS011;55635;50.264;11.918;2023-12-20T15:01:59;5.50;;;1.90;;
40945;SDS011;55635;50.264;11.918;2023-12-20T15:04:43;5.30;;;1.92;;
40945;SDS011;55635;50.264;11.918;2023-12-20T15:07:23;7.10;;;1.83;;
40945;SDS011;55635;50.264;11.918;2023-12-20T15:10:05;6.47;;;2.22;;
40945;SDS011;55635;50.264;11.918;2023-12-20T15:12:46;3.15;;;1.95;;
40945;SDS011;55635;50.264;11.918;2023-12-20T15:15:27;6.45;;;2.15;;
40945;SDS011;55635;50.264;11.918;2023-12-20T15:18:09;5.60;;;2.50;;
40945;SDS011;55635;50.264;11.918;2023-12-20T15:20:50;10.18;;;2.05;;
40945;SDS011;55635;50.264;11.918;2023-12-20T15:23:30;9.55;;;2.80;;
40945;SDS011;55635;50.264;11.918;2023-12-20T15:26:12;4.60;;;2.33;;
40945;SDS011;55635;50.264;11.918;2023-12-20T15:28:53;8.38;;;2.58;;
40945;SDS011;55635;50.264;11.918;2023-12-20T15:31:34;3.45;;;2.50;;
40945;SDS011;55635;50.264;11.918;2023-12-20T15:34:17;6.20;;;2.20;;
40945;SDS011;55635;50.264;11.918;2023-12-20T15:36:58;4.82;;;2.05;;
40945;SDS011;55635;50.264;11.918;2023-12-20T15:39:41;12.13;;;2.33;;
40945;SDS011;55635;50.264;11.918;2023-12-20T15:42:23;14.73;;;3.38;;
40945;SDS011;55635;50.264;11.918;2023-12-20T15:45:04;9.18;;;2.50;;
40945;SDS011;55635;50.264;11.918;2023-12-20T15:47:47;9.15;;;2.20;;
40945;SDS011;55635;50.264;11.918;2023-12-20T15:50:28;5.85;;;2.45;;
40945;SDS011;55635;50.264;11.918;2023-12-20T15:53:09;4.65;;;2.30;;
40945;SDS011;55635;50.264;11.918;2023-12-20T15:55:50;4.00;;;2.03;;
40945;SDS011;55635;50.264;11.918;2023-12-20T15:58:31;5.97;;;2.10;;
40945;SDS011;55635;50.264;11.918;2023-12-20T16:01:13;8.88;;;3.30;;